sensor_id;sensor_type;location;lat;lon;timestamp;pressure;altitude;pressure_sealevel;temperature;humidity
56330;BME280;42236;48.058;10.632;2023-05-19T00:01:46;95096.47;;;9.21;77.89
56330;BME280;42236;48.058;10.632;2023-05-19T00:04:35;95092.00;;;9.25;77.71
56330;BME280;42236;48.058;10.632;2023-05-19T00:07:24;95093.91;;;9.25;77.71
56330;BME280;42236;48.058;10.632;2023-05-19T00:10:15;95087.28;;;9.22;77.79
56330;BME280;42236;48.058;10.632;2023-05-19T00:13:01;95086.34;;;9.18;77.77
56330;BME280;42236;48.058;10.632;2023-05-19T00:15:47;95087.75;;;9.24;77.58
56330;BME280;42236;48.058;10.632;2023-05-19T00:18:33;95086.50;;;9.22;77.72
56330;BME280;42236;48.058;10.632;2023-05-19T00:21:19;95081.59;;;9.15;77.91
56330;BME280;42236;48.058;10.632;2023-05-19T00:24:06;95092.19;;;9.20;77.77
56330;BME280;42236;48.058;10.632;2023-05-19T00:26:51;95081.91;;;9.22;77.55
56330;BME280;42236;48.058;10.632;2023-05-19T00:29:37;95087.75;;;9.24;77.62
56330;BME280;42236;48.058;10.632;2023-05-19T00:32:23;95081.25;;;9.25;77.53
56330;BME280;42236;48.058;10.632;2023-05-19T00:35:08;95072.38;;;9.25;77.68
56330;BME280;42236;48.058;10.632;2023-05-19T00:37:54;95068.91;;;9.24;77.70
56330;BME280;42236;48.058;10.632;2023-05-19T00:40:40;95075.41;;;9.23;77.93
56330;BME280;42236;48.058;10.632;2023-05-19T00:43:25;95072.75;;;9.14;78.05
56330;BME280;42236;48.058;10.632;2023-05-19T00:46:11;95071.00;;;9.10;78.27
56330;BME280;42236;48.058;10.632;2023-05-19T00:48:57;95073.88;;;9.05;78.69
56330;BME280;42236;48.058;10.632;2023-05-19T00:51:42;95072.91;;;9.01;78.59
56330;BME280;42236;48.058;10.632;2023-05-19T00:54:28;95065.78;;;9.05;78.58
56330;BME280;42236;48.058;10.632;2023-05-19T00:57:14;95064.38;;;8.98;78.84
56330;BME280;42236;48.058;10.632;2023-05-19T01:00:00;95064.53;;;8.93;79.08
56330;BME280;42236;48.058;10.632;2023-05-19T01:02:45;95058.38;;;8.84;79.75
56330;BME280;42236;48.058;10.632;2023-05-19T01:05:31;95055.22;;;8.82;79.80
56330;BME280;42236;48.058;10.632;2023-05-19T01:08:17;95050.47;;;8.79;79.51
56330;BME280;42236;48.058;10.632;2023-05-19T01:11:03;95054.28;;;8.78;79.84
56330;BME280;42236;48.058;10.632;2023-05-19T01:13:49;95050.47;;;8.79;79.73
56330;BME280;42236;48.058;10.632;2023-05-19T01:16:47;95045.72;;;8.76;80.67
56330;BME280;42236;48.058;10.632;2023-05-19T01:31:20;95059.47;;;8.74;80.05
56330;BME280;42236;48.058;10.632;2023-05-19T01:34:09;95060.00;;;8.68;80.43
56330;BME280;42236;48.058;10.632;2023-05-19T01:36:57;95065.19;;;8.73;80.13
56330;BME280;42236;48.058;10.632;2023-05-19T01:39:45;95054.75;;;8.71;80.36
56330;BME280;42236;48.058;10.632;2023-05-19T01:42:31;95052.06;;;8.71;80.28
56330;BME280;42236;48.058;10.632;2023-05-19T01:45:22;95055.22;;;8.73;80.48
56330;BME280;42236;48.058;10.632;2023-05-19T01:48:08;95052.06;;;8.71;80.48
56330;BME280;42236;48.058;10.632;2023-05-19T01:50:54;95054.59;;;8.68;80.80
56330;BME280;42236;48.058;10.632;2023-05-19T01:53:41;95051.13;;;8.59;81.29
56330;BME280;42236;48.058;10.632;2023-05-19T01:59:51;95045.09;;;8.62;81.36
56330;BME280;42236;48.058;10.632;2023-05-19T02:12:28;95052.06;;;8.45;83.36
56330;BME280;42236;48.058;10.632;2023-05-19T02:15:20;95046.69;;;8.45;83.20
56330;BME280;42236;48.058;10.632;2023-05-19T02:18:09;95049.06;;;8.47;83.04
56330;BME280;42236;48.058;10.632;2023-05-19T02:20:58;95051.28;;;8.45;83.27
56330;BME280;42236;48.058;10.632;2023-05-19T02:23:44;95051.72;;;8.29;84.68
56330;BME280;42236;48.058;10.632;2023-05-19T02:26:29;95047.78;;;8.27;84.59
56330;BME280;42236;48.058;10.632;2023-05-19T02:29:16;95040.31;;;8.24;85.24
56330;BME280;42236;48.058;10.632;2023-05-19T02:32:02;95043.97;;;8.19;85.75
56330;BME280;42236;48.058;10.632;2023-05-19T02:34:47;95037.97;;;8.22;85.54
56330;BME280;42236;48.058;10.632;2023-05-19T02:37:33;95049.50;;;8.23;85.52
56330;BME280;42236;48.058;10.632;2023-05-19T02:40:19;95047.94;;;8.22;85.88
56330;BME280;42236;48.058;10.632;2023-05-19T02:43:05;95041.41;;;8.14;87.83
56330;BME280;42236;48.058;10.632;2023-05-19T02:45:52;95039.69;;;8.09;87.54
56330;BME280;42236;48.058;10.632;2023-05-19T02:48:38;95040.31;;;8.06;87.45
56330;BME280;42236;48.058;10.632;2023-05-19T02:51:23;95037.94;;;8.05;87.71
56330;BME280;42236;48.058;10.632;2023-05-19T02:54:09;95031.47;;;8.06;87.45
56330;BME280;42236;48.058;10.632;2023-05-19T02:56:55;95026.88;;;8.06;87.53
56330;BME280;42236;48.058;10.632;2023-05-19T02:59:41;95030.03;;;8.08;87.65
56330;BME280;42236;48.058;10.632;2023-05-19T03:02:27;95027.84;;;8.10;86.77
56330;BME280;42236;48.058;10.632;2023-05-19T03:05:12;95017.38;;;8.09;87.58
56330;BME280;42236;48.058;10.632;2023-05-19T03:07:58;95017.25;;;8.05;87.64
56330;BME280;42236;48.058;10.632;2023-05-19T03:10:47;95011.53;;;7.98;89.16
56330;BME280;42236;48.058;10.632;2023-05-19T03:13:32;95010.28;;;7.96;88.50
56330;BME280;42236;48.058;10.632;2023-05-19T03:16:19;95006.63;;;7.91;88.94
56330;BME280;42236;48.058;10.632;2023-05-19T03:19:05;95011.69;;;7.93;89.13
56330;BME280;42236;48.058;10.632;2023-05-19T03:21:51;95008.03;;;7.89;90.20
56330;BME280;42236;48.058;10.632;2023-05-19T03:24:37;95006.47;;;7.88;88.76
56330;BME280;42236;48.058;10.632;2023-05-19T03:27:23;95008.84;;;7.89;88.63
56330;BME280;42236;48.058;10.632;2023-05-19T03:30:09;95007.91;;;7.94;88.25
56330;BME280;42236;48.058;10.632;2023-05-19T03:32:55;95009.31;;;7.91;89.44
56330;BME280;42236;48.058;10.632;2023-05-19T03:35:41;95009.78;;;7.94;88.92
56330;BME280;42236;48.058;10.632;2023-05-19T03:38:28;95009.94;;;7.97;88.02
56330;BME280;42236;48.058;10.632;2023-05-19T03:41:14;95012.19;;;7.95;88.71
56330;BME280;42236;48.058;10.632;2023-05-19T03:44:00;95013.91;;;7.91;89.15
56330;BME280;42236;48.058;10.632;2023-05-19T03:46:45;95019.91;;;7.88;89.28
56330;BME280;42236;48.058;10.632;2023-05-19T03:49:32;95017.97;;;7.80;90.29
56330;BME280;42236;48.058;10.632;2023-05-19T03:52:17;95014.81;;;7.78;89.91
56330;BME280;42236;48.058;10.632;2023-05-19T03:55:04;95015.28;;;7.80;90.56
56330;BME280;42236;48.058;10.632;2023-05-19T03:57:50;95014.34;;;7.76;90.83
56330;BME280;42236;48.058;10.632;2023-05-19T04:00:36;95017.97;;;7.80;90.08
56330;BME280;42236;48.058;10.632;2023-05-19T04:03:22;95012.59;;;7.80;89.79
56330;BME280;42236;48.058;10.632;2023-05-19T04:06:10;95019.41;;;7.77;90.54
56330;BME280;42236;48.058;10.632;2023-05-19T04:08:57;95018.75;;;7.72;91.04
56330;BME280;42236;48.058;10.632;2023-05-19T04:11:42;95023.03;;;7.73;90.71
56330;BME280;42236;48.058;10.632;2023-05-19T04:14:28;95029.50;;;7.72;91.20
56330;BME280;42236;48.058;10.632;2023-05-19T04:17:14;95017.34;;;7.74;90.59
56330;BME280;42236;48.058;10.632;2023-05-19T04:20:00;95020.22;;;7.86;89.84
56330;BME280;42236;48.058;10.632;2023-05-19T04:22:45;95015.63;;;7.87;90.88
56330;BME280;42236;48.058;10.632;2023-05-19T04:25:31;95014.84;;;7.86;90.23
56330;BME280;42236;48.058;10.632;2023-05-19T04:28:17;95023.19;;;7.85;90.28
56330;BME280;42236;48.058;10.632;2023-05-19T04:31:03;95015.63;;;7.87;90.28
56330;BME280;42236;48.058;10.632;2023-05-19T04:33:54;95019.91;;;7.97;89.88
56330;BME280;42236;48.058;10.632;2023-05-19T04:36:40;95023.84;;;7.99;90.11
56330;BME280;42236;48.058;10.632;2023-05-19T04:39:26;95019.94;;;8.05;89.63
56330;BME280;42236;48.058;10.632;2023-05-19T04:42:12;95023.09;;;8.16;88.93
56330;BME280;42236;48.058;10.632;2023-05-19T04:44:58;95018.66;;;8.20;89.34
56330;BME280;42236;48.058;10.632;2023-05-19T04:47:43;95018.84;;;8.15;89.68
56330;BME280;42236;48.058;10.632;2023-05-19T04:50:31;95014.88;;;8.30;88.81
56330;BME280;42236;48.058;10.632;2023-05-19T04:53:17;95014.25;;;8.33;88.61
56330;BME280;42236;48.058;10.632;2023-05-19T04:56:03;95011.41;;;8.29;88.92
56330;BME280;42236;48.058;10.632;2023-05-19T04:58:48;95006.81;;;8.30;89.18
56330;BME280;42236;48.058;10.632;2023-05-19T05:01:35;95006.03;;;8.29;89.28
56330;BME280;42236;48.058;10.632;2023-05-19T05:04:24;95008.44;;;8.40;89.00
56330;BME280;42236;48.058;10.632;2023-05-19T05:07:10;95006.06;;;8.47;88.49
56330;BME280;42236;48.058;10.632;2023-05-19T05:09:56;95007.78;;;8.51;88.50
56330;BME280;42236;48.058;10.632;2023-05-19T05:12:42;95018.53;;;8.51;88.23
56330;BME280;42236;48.058;10.632;2023-05-19T05:15:27;95008.25;;;8.45;88.53
56330;BME280;42236;48.058;10.632;2023-05-19T05:18:14;95011.25;;;8.52;88.49
56330;BME280;42236;48.058;10.632;2023-05-19T05:21:01;95012.69;;;8.58;88.13
56330;BME280;42236;48.058;10.632;2023-05-19T05:23:48;95017.56;;;8.65;87.96
56330;BME280;42236;48.058;10.632;2023-05-19T05:26:34;95013.44;;;8.76;87.54
56330;BME280;42236;48.058;10.632;2023-05-19T05:29:20;95014.75;;;8.70;87.86
56330;BME280;42236;48.058;10.632;2023-05-19T05:32:06;95020.13;;;8.70;87.77
56330;BME280;42236;48.058;10.632;2023-05-19T05:34:52;95026.44;;;8.74;87.66
56330;BME280;42236;48.058;10.632;2023-05-19T05:37:38;95021.22;;;8.78;87.50
56330;BME280;42236;48.058;10.632;2023-05-19T05:40:23;95020.88;;;8.88;87.21
56330;BME280;42236;48.058;10.632;2023-05-19T05:43:09;95027.16;;;9.01;86.69
56330;BME280;42236;48.058;10.632;2023-05-19T05:45:55;95017.97;;;9.10;86.51
56330;BME280;42236;48.058;10.632;2023-05-19T05:48:41;95019.69;;;9.15;86.39
56330;BME280;42236;48.058;10.632;2023-05-19T05:51:27;95024.28;;;9.23;86.23
56330;BME280;42236;48.058;10.632;2023-05-19T05:54:15;95022.97;;;9.29;85.71
56330;BME280;42236;48.058;10.632;2023-05-19T05:57:02;95026.97;;;9.23;85.84
56330;BME280;42236;48.058;10.632;2023-05-19T05:59:48;95031.41;;;9.19;86.12
56330;BME280;42236;48.058;10.632;2023-05-19T06:02:35;95029.97;;;9.22;85.75
56330;BME280;42236;48.058;10.632;2023-05-19T06:05:21;95023.31;;;9.19;86.22
56330;BME280;42236;48.058;10.632;2023-05-19T06:08:06;95019.50;;;9.20;86.32
56330;BME280;42236;48.058;10.632;2023-05-19T06:10:52;95025.66;;;9.29;85.83
56330;BME280;42236;48.058;10.632;2023-05-19T06:13:38;95021.72;;;9.27;85.70
56330;BME280;42236;48.058;10.632;2023-05-19T06:16:25;95031.50;;;9.31;85.55
56330;BME280;42236;48.058;10.632;2023-05-19T06:19:11;95021.31;;;9.46;85.22
56330;BME280;42236;48.058;10.632;2023-05-19T06:21:57;95031.25;;;9.54;85.06
56330;BME280;42236;48.058;10.632;2023-05-19T06:24:42;95028.09;;;9.52;85.08
56330;BME280;42236;48.058;10.632;2023-05-19T06:27:28;95032.06;;;9.54;84.73
56330;BME280;42236;48.058;10.632;2023-05-19T06:30:14;95028.66;;;9.66;84.57
56330;BME280;42236;48.058;10.632;2023-05-19T06:32:59;95031.34;;;9.75;84.11
56330;BME280;42236;48.058;10.632;2023-05-19T06:35:45;95026.44;;;9.68;84.39
56330;BME280;42236;48.058;10.632;2023-05-19T06:38:31;95028.84;;;9.61;84.78
56330;BME280;42236;48.058;10.632;2023-05-19T06:41:16;95034.88;;;9.67;84.40
56330;BME280;42236;48.058;10.632;2023-05-19T06:44:06;95036.34;;;9.55;84.59
56330;BME280;42236;48.058;10.632;2023-05-19T06:46:52;95033.44;;;9.69;84.33
56330;BME280;42236;48.058;10.632;2023-05-19T06:49:38;95037.03;;;9.73;84.18
56330;BME280;42236;48.058;10.632;2023-05-19T06:52:24;95030.25;;;9.67;84.25
56330;BME280;42236;48.058;10.632;2023-05-19T06:55:09;95028.03;;;9.69;83.86
56330;BME280;42236;48.058;10.632;2023-05-19T06:57:55;95031.78;;;9.77;83.74
56330;BME280;42236;48.058;10.632;2023-05-19T07:00:41;95036.84;;;9.78;83.67
56330;BME280;42236;48.058;10.632;2023-05-19T07:03:27;95044.13;;;9.87;83.26
56330;BME280;42236;48.058;10.632;2023-05-19T07:06:15;95035.97;;;9.95;83.13
56330;BME280;42236;48.058;10.632;2023-05-19T07:09:00;95031.13;;;10.10;83.07
56330;BME280;42236;48.058;10.632;2023-05-19T07:11:46;95031.81;;;10.28;82.19
56330;BME280;42236;48.058;10.632;2023-05-19T07:14:32;95030.50;;;10.34;81.80
56330;BME280;42236;48.058;10.632;2023-05-19T07:17:18;95026.56;;;10.31;82.07
56330;BME280;42236;48.058;10.632;2023-05-19T07:20:03;95032.16;;;10.47;81.69
56330;BME280;42236;48.058;10.632;2023-05-19T07:22:54;95034.72;;;10.64;80.70
56330;BME280;42236;48.058;10.632;2023-05-19T07:25:40;95037.22;;;10.70;80.67
56330;BME280;42236;48.058;10.632;2023-05-19T07:28:26;95025.47;;;10.65;79.88
56330;BME280;42236;48.058;10.632;2023-05-19T07:31:11;95034.84;;;10.68;80.45
56330;BME280;42236;48.058;10.632;2023-05-19T07:33:57;95032.34;;;10.63;80.64
56330;BME280;42236;48.058;10.632;2023-05-19T07:36:43;95026.94;;;10.63;79.93
56330;BME280;42236;48.058;10.632;2023-05-19T07:39:29;95028.66;;;10.67;80.07
56330;BME280;42236;48.058;10.632;2023-05-19T07:42:16;95021.53;;;10.84;79.51
56330;BME280;42236;48.058;10.632;2023-05-19T07:45:02;95010.13;;;11.12;79.12
56330;BME280;42236;48.058;10.632;2023-05-19T07:47:48;95020.97;;;11.36;78.45
56330;BME280;42236;48.058;10.632;2023-05-19T07:50:34;95013.75;;;11.28;77.90
56330;BME280;42236;48.058;10.632;2023-05-19T07:53:20;95017.94;;;11.38;77.99
56330;BME280;42236;48.058;10.632;2023-05-19T07:56:07;95021.53;;;11.42;76.58
56330;BME280;42236;48.058;10.632;2023-05-19T07:58:52;95019.38;;;11.35;77.41
56330;BME280;42236;48.058;10.632;2023-05-19T08:01:38;95014.91;;;11.39;77.10
56330;BME280;42236;48.058;10.632;2023-05-19T08:04:24;95018.06;;;11.53;77.25
56330;BME280;42236;48.058;10.632;2023-05-19T08:07:10;95015.69;;;11.52;76.68
56330;BME280;42236;48.058;10.632;2023-05-19T08:09:55;95018.19;;;11.69;76.62
56330;BME280;42236;48.058;10.632;2023-05-19T08:12:41;95011.44;;;11.75;76.26
56330;BME280;42236;48.058;10.632;2023-05-19T08:15:28;95012.91;;;11.73;75.77
56330;BME280;42236;48.058;10.632;2023-05-19T08:18:14;95023.25;;;11.83;75.60
56330;BME280;42236;48.058;10.632;2023-05-19T08:21:00;95015.59;;;11.85;75.33
56330;BME280;42236;48.058;10.632;2023-05-19T08:23:46;95011.34;;;11.97;74.95
56330;BME280;42236;48.058;10.632;2023-05-19T08:26:31;95011.09;;;12.02;74.80
56330;BME280;42236;48.058;10.632;2023-05-19T08:29:17;95007.38;;;12.19;74.26
56330;BME280;42236;48.058;10.632;2023-05-19T08:32:03;94998.53;;;12.34;73.62
56330;BME280;42236;48.058;10.632;2023-05-19T08:34:49;95001.31;;;12.50;73.92
56330;BME280;42236;48.058;10.632;2023-05-19T08:37:35;95010.28;;;12.66;73.72
56330;BME280;42236;48.058;10.632;2023-05-19T08:40:22;95004.16;;;12.69;73.10
56330;BME280;42236;48.058;10.632;2023-05-19T08:43:08;95007.13;;;12.64;71.67
56330;BME280;42236;48.058;10.632;2023-05-19T08:45:54;95006.94;;;12.57;71.65
56330;BME280;42236;48.058;10.632;2023-05-19T08:48:41;95009.78;;;12.76;71.69
56330;BME280;42236;48.058;10.632;2023-05-19T08:51:49;94998.69;;;12.81;70.53
56330;BME280;42236;48.058;10.632;2023-05-19T08:54:45;94998.09;;;12.60;69.03
56330;BME280;42236;48.058;10.632;2023-05-19T08:57:32;94997.31;;;12.88;70.81
56330;BME280;42236;48.058;10.632;2023-05-19T09:00:18;94994.50;;;13.12;70.57
56330;BME280;42236;48.058;10.632;2023-05-19T09:03:11;95003.81;;;12.99;69.87
56330;BME280;42236;48.058;10.632;2023-05-19T09:05:57;94988.38;;;13.15;70.57
56330;BME280;42236;48.058;10.632;2023-05-19T09:08:43;94992.38;;;13.21;70.46
56330;BME280;42236;48.058;10.632;2023-05-19T09:11:29;94992.97;;;12.99;70.67
56330;BME280;42236;48.058;10.632;2023-05-19T09:14:15;94990.91;;;12.80;70.66
56330;BME280;42236;48.058;10.632;2023-05-19T09:17:01;94984.81;;;12.55;71.21
56330;BME280;42236;48.058;10.632;2023-05-19T09:19:46;94990.44;;;12.62;71.25
56330;BME280;42236;48.058;10.632;2023-05-19T09:22:39;94996.34;;;12.52;71.56
56330;BME280;42236;48.058;10.632;2023-05-19T09:25:25;94990.47;;;12.50;71.21
56330;BME280;42236;48.058;10.632;2023-05-19T09:28:14;94991.34;;;12.66;71.11
56330;BME280;42236;48.058;10.632;2023-05-19T09:33:52;94971.41;;;13.02;69.87
56330;BME280;42236;48.058;10.632;2023-05-19T09:36:40;94981.47;;;13.18;68.85
56330;BME280;42236;48.058;10.632;2023-05-19T09:39:26;94977.63;;;13.03;69.17
56330;BME280;42236;48.058;10.632;2023-05-19T09:42:23;94978.22;;;12.68;68.43
56330;BME280;42236;48.058;10.632;2023-05-19T09:45:09;94970.78;;;12.65;69.31
56330;BME280;42236;48.058;10.632;2023-05-19T09:47:58;94977.19;;;12.73;69.19
56330;BME280;42236;48.058;10.632;2023-05-19T09:50:48;94976.31;;;12.69;68.84
56330;BME280;42236;48.058;10.632;2023-05-19T09:53:36;94976.00;;;12.58;68.85
56330;BME280;42236;48.058;10.632;2023-05-19T09:56:23;94973.88;;;12.64;67.64
56330;BME280;42236;48.058;10.632;2023-05-19T09:59:12;94973.88;;;12.64;67.61
56330;BME280;42236;48.058;10.632;2023-05-19T10:02:00;94974.28;;;12.66;67.41
56330;BME280;42236;48.058;10.632;2023-05-19T10:04:54;94979.38;;;12.67;68.21
56330;BME280;42236;48.058;10.632;2023-05-19T10:07:40;94971.75;;;12.57;66.28
56330;BME280;42236;48.058;10.632;2023-05-19T10:10:27;94975.28;;;12.73;67.91
56330;BME280;42236;48.058;10.632;2023-05-19T10:13:14;94979.50;;;12.87;67.28
56330;BME280;42236;48.058;10.632;2023-05-19T10:16:02;94971.38;;;12.87;66.39
56330;BME280;42236;48.058;10.632;2023-05-19T10:18:50;94966.84;;;12.91;66.22
56330;BME280;42236;48.058;10.632;2023-05-19T10:21:36;94976.66;;;13.11;66.84
56330;BME280;42236;48.058;10.632;2023-05-19T10:24:22;94968.06;;;13.37;65.88
56330;BME280;42236;48.058;10.632;2023-05-19T10:27:16;94974.69;;;13.40;64.06
56330;BME280;42236;48.058;10.632;2023-05-19T10:30:27;94979.28;;;13.23;64.17
56330;BME280;42236;48.058;10.632;2023-05-19T10:33:15;94972.13;;;13.15;65.15
56330;BME280;42236;48.058;10.632;2023-05-19T10:36:28;94963.84;;;13.24;64.33
56330;BME280;42236;48.058;10.632;2023-05-19T10:39:29;94967.03;;;12.98;65.30
56330;BME280;42236;48.058;10.632;2023-05-19T10:42:39;94964.97;;;13.07;65.37
56330;BME280;42236;48.058;10.632;2023-05-19T10:45:29;94973.41;;;13.21;65.79
56330;BME280;42236;48.058;10.632;2023-05-19T10:48:19;94963.94;;;13.28;63.98
56330;BME280;42236;48.058;10.632;2023-05-19T10:51:05;94955.09;;;13.62;64.87
56330;BME280;42236;48.058;10.632;2023-05-19T10:53:56;94962.63;;;14.04;63.73
56330;BME280;42236;48.058;10.632;2023-05-19T10:56:43;94961.03;;;14.03;64.00
56330;BME280;42236;48.058;10.632;2023-05-19T10:59:35;94964.75;;;13.95;62.44
56330;BME280;42236;48.058;10.632;2023-05-19T11:02:41;94969.84;;;13.81;62.90
56330;BME280;42236;48.058;10.632;2023-05-19T11:05:28;94971.00;;;13.80;64.46
56330;BME280;42236;48.058;10.632;2023-05-19T11:08:14;94976.44;;;13.48;64.93
56330;BME280;42236;48.058;10.632;2023-05-19T11:11:14;94982.03;;;13.39;64.60
56330;BME280;42236;48.058;10.632;2023-05-19T11:14:02;94972.25;;;13.35;65.73
56330;BME280;42236;48.058;10.632;2023-05-19T11:16:49;94975.75;;;13.51;66.00
56330;BME280;42236;48.058;10.632;2023-05-19T11:19:36;94966.53;;;13.72;65.64
56330;BME280;42236;48.058;10.632;2023-05-19T11:22:25;94974.84;;;13.79;64.79
56330;BME280;42236;48.058;10.632;2023-05-19T11:25:11;94969.63;;;13.70;65.35
56330;BME280;42236;48.058;10.632;2023-05-19T11:27:57;94970.41;;;13.71;65.14
56330;BME280;42236;48.058;10.632;2023-05-19T11:30:44;94981.94;;;13.68;65.15
56330;BME280;42236;48.058;10.632;2023-05-19T11:33:31;94980.72;;;13.49;65.63
56330;BME280;42236;48.058;10.632;2023-05-19T11:36:17;94971.16;;;13.23;65.77
56330;BME280;42236;48.058;10.632;2023-05-19T11:39:04;94975.94;;;13.14;66.02
56330;BME280;42236;48.058;10.632;2023-05-19T11:41:50;94969.94;;;13.21;66.22
56330;BME280;42236;48.058;10.632;2023-05-19T11:44:36;94974.84;;;13.31;66.06
56330;BME280;42236;48.058;10.632;2023-05-19T11:47:22;94974.53;;;13.49;65.91
56330;BME280;42236;48.058;10.632;2023-05-19T11:50:09;94974.06;;;13.31;66.08
56330;BME280;42236;48.058;10.632;2023-05-19T11:52:59;94973.69;;;13.16;66.05
56330;BME280;42236;48.058;10.632;2023-05-19T11:55:46;94976.50;;;13.20;65.93
56330;BME280;42236;48.058;10.632;2023-05-19T11:58:31;94974.03;;;13.15;66.06
56330;BME280;42236;48.058;10.632;2023-05-19T12:01:17;94978.72;;;13.02;66.19
56330;BME280;42236;48.058;10.632;2023-05-19T12:04:10;94975.09;;;13.10;66.31
56330;BME280;42236;48.058;10.632;2023-05-19T12:06:56;94971.53;;;13.22;66.05
56330;BME280;42236;48.058;10.632;2023-05-19T12:09:43;94971.19;;;13.39;65.51
56330;BME280;42236;48.058;10.632;2023-05-19T12:12:30;94967.69;;;13.55;65.38
56330;BME280;42236;48.058;10.632;2023-05-19T12:15:20;94974.06;;;13.78;64.36
56330;BME280;42236;48.058;10.632;2023-05-19T12:18:06;94960.72;;;13.89;64.62
56330;BME280;42236;48.058;10.632;2023-05-19T12:20:52;94968.69;;;13.98;64.37
56330;BME280;42236;48.058;10.632;2023-05-19T12:23:49;94957.44;;;13.80;63.25
56330;BME280;42236;48.058;10.632;2023-05-19T12:26:35;94964.09;;;13.66;64.43
56330;BME280;42236;48.058;10.632;2023-05-19T12:29:27;94961.66;;;13.61;64.68
56330;BME280;42236;48.058;10.632;2023-05-19T12:32:14;94961.56;;;13.58;65.03
56330;BME280;42236;48.058;10.632;2023-05-19T12:35:01;94968.13;;;13.57;64.28
56330;BME280;42236;48.058;10.632;2023-05-19T12:37:47;94967.97;;;13.34;65.86
56330;BME280;42236;48.058;10.632;2023-05-19T12:40:34;94965.41;;;13.25;65.66
56330;BME280;42236;48.058;10.632;2023-05-19T12:43:21;94958.91;;;13.14;66.73
56330;BME280;42236;48.058;10.632;2023-05-19T12:46:11;94977.00;;;13.26;65.65
56330;BME280;42236;48.058;10.632;2023-05-19T12:48:58;94973.88;;;13.23;66.11
56330;BME280;42236;48.058;10.632;2023-05-19T12:51:54;94972.13;;;13.31;65.95
56330;BME280;42236;48.058;10.632;2023-05-19T12:54:50;94970.63;;;13.18;65.84
56330;BME280;42236;48.058;10.632;2023-05-19T12:57:43;94963.03;;;13.23;66.17
56330;BME280;42236;48.058;10.632;2023-05-19T13:00:29;94962.31;;;13.11;66.48
56330;BME280;42236;48.058;10.632;2023-05-19T13:03:17;94968.00;;;13.06;66.46
56330;BME280;42236;48.058;10.632;2023-05-19T13:06:03;94965.91;;;13.15;66.98
56330;BME280;42236;48.058;10.632;2023-05-19T13:08:49;94969.41;;;13.15;66.49
56330;BME280;42236;48.058;10.632;2023-05-19T13:11:35;94962.06;;;13.16;66.53
56330;BME280;42236;48.058;10.632;2023-05-19T13:14:21;94961.28;;;13.15;66.76
56330;BME280;42236;48.058;10.632;2023-05-19T13:20:22;94954.78;;;13.04;65.76
56330;BME280;42236;48.058;10.632;2023-05-19T13:23:12;94951.66;;;13.02;65.73
56330;BME280;42236;48.058;10.632;2023-05-19T13:25:57;94956.56;;;13.12;65.75
56330;BME280;42236;48.058;10.632;2023-05-19T13:28:43;94951.28;;;13.32;65.19
56330;BME280;42236;48.058;10.632;2023-05-19T13:31:29;94950.84;;;13.30;65.32
56330;BME280;42236;48.058;10.632;2023-05-19T13:34:15;94936.66;;;13.52;64.60
56330;BME280;42236;48.058;10.632;2023-05-19T13:37:02;94946.59;;;13.80;64.03
56330;BME280;42236;48.058;10.632;2023-05-19T13:39:48;94951.56;;;13.78;63.80
56330;BME280;42236;48.058;10.632;2023-05-19T13:42:34;94947.59;;;13.91;63.41
56330;BME280;42236;48.058;10.632;2023-05-19T13:45:20;94949.25;;;13.96;63.39
56330;BME280;42236;48.058;10.632;2023-05-19T13:48:06;94946.47;;;13.92;63.61
56330;BME280;42236;48.058;10.632;2023-05-19T13:50:52;94948.63;;;14.02;63.42
56330;BME280;42236;48.058;10.632;2023-05-19T13:54:02;94951.19;;;13.95;61.85
56330;BME280;42236;48.058;10.632;2023-05-19T14:00:30;94944.88;;;13.91;63.42
56330;BME280;42236;48.058;10.632;2023-05-19T14:03:16;94950.13;;;14.00;63.25
56330;BME280;42236;48.058;10.632;2023-05-19T14:06:04;94951.03;;;13.72;63.74
56330;BME280;42236;48.058;10.632;2023-05-19T14:08:49;94944.44;;;13.54;64.05
56330;BME280;42236;48.058;10.632;2023-05-19T14:11:53;94947.31;;;13.45;63.62
56330;BME280;42236;48.058;10.632;2023-05-19T14:14:39;94956.00;;;13.35;64.64
56330;BME280;42236;48.058;10.632;2023-05-19T14:17:26;94951.19;;;13.44;64.87
56330;BME280;42236;48.058;10.632;2023-05-19T14:20:12;94945.28;;;13.58;64.55
56330;BME280;42236;48.058;10.632;2023-05-19T14:22:58;94941.34;;;13.55;64.70
56330;BME280;42236;48.058;10.632;2023-05-19T14:25:44;94950.41;;;13.43;64.90
56330;BME280;42236;48.058;10.632;2023-05-19T14:28:40;94941.19;;;13.48;64.86
56330;BME280;42236;48.058;10.632;2023-05-19T14:31:25;94939.69;;;13.66;64.44
56330;BME280;42236;48.058;10.632;2023-05-19T14:34:11;94940.63;;;13.90;64.06
56330;BME280;42236;48.058;10.632;2023-05-19T14:36:57;94937.06;;;14.05;63.51
56330;BME280;42236;48.058;10.632;2023-05-19T14:39:43;94943.22;;;13.86;64.04
56330;BME280;42236;48.058;10.632;2023-05-19T14:42:29;94942.41;;;13.66;64.29
56330;BME280;42236;48.058;10.632;2023-05-19T14:45:15;94943.03;;;13.60;64.63
56330;BME280;42236;48.058;10.632;2023-05-19T14:48:00;94940.69;;;13.58;65.02
56330;BME280;42236;48.058;10.632;2023-05-19T14:50:46;94934.72;;;13.53;65.68
56330;BME280;42236;48.058;10.632;2023-05-19T14:53:35;94930.97;;;13.57;65.40
56330;BME280;42236;48.058;10.632;2023-05-19T14:56:21;94937.84;;;13.71;65.37
56330;BME280;42236;48.058;10.632;2023-05-19T14:59:07;94928.34;;;13.96;65.02
56330;BME280;42236;48.058;10.632;2023-05-19T15:01:52;94934.88;;;14.30;64.16
56330;BME280;42236;48.058;10.632;2023-05-19T15:04:38;94934.69;;;14.59;63.51
56330;BME280;42236;48.058;10.632;2023-05-19T15:07:27;94928.66;;;14.69;63.40
56330;BME280;42236;48.058;10.632;2023-05-19T15:10:13;94923.78;;;14.78;63.15
56330;BME280;42236;48.058;10.632;2023-05-19T15:12:58;94918.28;;;14.94;62.73
56330;BME280;42236;48.058;10.632;2023-05-19T15:15:46;94923.19;;;15.08;62.50